New London, Wisconsin
Current Conditions -  °F | °C
As of 1:35 AM on Sunday 23 Nov 2014 (Local Time) from KPCZ Reporting Station
Moderate Fog Moderate Fog  
Wind Chill: 38°   Ceiling: 200
Heat Index: 41°   Visibility: 0.25mi
Dew Point: 39°   Wind: 5mph
Humidity: 95%   Direction: 90°E
Pressure: 29.66"   Gusts: NA
Location:  44.39°N, 88.74°W
Report Text: KPCZ 230735Z AUTO 09004KT 1/4SM FG OVC002 05/04 A2966 RMK AO2 T00480041
Loading
Personal Weather Stations






























Interactive Weather Map New forecast layout! Learn more

10-Day Weather Forecast

Advertisements
Track Severe Weather on mobile